createdAt,value
2023-02-01T00:01:12.402Z,59.72
2023-02-01T00:03:40.331Z,61.45
2023-02-01T00:06:08.376Z,62.40
2023-02-01T00:08:36.344Z,62.05
2023-02-01T00:11:11.429Z,54.75
2023-02-01T00:13:40.752Z,58.42
2023-02-01T00:16:19.114Z,59.22
2023-02-01T00:18:48.035Z,62.05
2023-02-01T00:21:17.195Z,59.78
2023-02-01T00:23:45.223Z,55.63
2023-02-01T00:26:17.970Z,63.63
2023-02-01T00:28:46.340Z,56.97
2023-02-01T00:31:14.343Z,58.53
2023-02-01T00:33:42.435Z,53.25
2023-02-01T00:36:11.216Z,58.05
2023-02-01T00:38:39.817Z,59.13
2023-02-01T00:41:13.771Z,59.90
2023-02-01T00:43:41.932Z,53.33
2023-02-01T00:46:10.126Z,54.58
2023-02-01T00:48:38.254Z,48.78
2023-02-01T00:51:07.564Z,51.50
2023-02-01T00:53:35.630Z,55.90
2023-02-01T00:56:03.708Z,54.97
2023-02-01T00:58:31.494Z,52.63
2023-02-01T01:01:06.969Z,55.70
2023-02-01T01:03:38.024Z,58.38
2023-02-01T01:06:07.609Z,51.90
2023-02-01T01:08:37.285Z,54.50
2023-02-01T01:11:13.216Z,53.58
2023-02-01T01:13:41.187Z,52.13
2023-02-01T01:16:09.563Z,55.33
2023-02-01T01:18:37.624Z,56.20
2023-02-01T01:21:10.054Z,51.20
2023-02-01T01:23:38.407Z,36.10
2023-02-01T01:26:08.114Z,54.05
2023-02-01T01:28:36.049Z,49.95
2023-02-01T01:31:09.430Z,52.00
2023-02-01T01:33:37.251Z,49.17
2023-02-01T01:36:08.746Z,48.42
2023-02-01T01:38:37.097Z,51.05
2023-02-01T01:41:05.815Z,43.20
2023-02-01T01:43:52.676Z,51.90
2023-02-01T01:46:23.178Z,46.88
2023-02-01T01:48:54.123Z,53.13
2023-02-01T01:51:22.936Z,47.80
2023-02-01T01:53:55.732Z,56.60
2023-02-01T01:56:24.051Z,50.15
2023-02-01T01:58:51.971Z,52.47
2023-02-01T02:01:20.019Z,48.42
2023-02-01T02:03:48.931Z,48.17
2023-02-01T02:06:26.021Z,49.50
2023-02-01T02:08:54.031Z,51.72
2023-02-01T02:11:21.837Z,51.08
2023-02-01T02:13:52.240Z,46.63
2023-02-01T02:16:24.507Z,50.53
2023-02-01T02:19:11.153Z,41.50
2023-02-01T02:21:48.078Z,47.40
2023-02-01T02:24:25.521Z,46.80
2023-02-01T02:27:01.973Z,49.80
2023-02-01T02:29:57.656Z,55.80
2023-02-01T02:32:28.503Z,48.30
2023-02-01T02:35:01.405Z,47.92
2023-02-01T02:37:38.410Z,51.40
2023-02-01T02:40:10.010Z,55.13
2023-02-01T02:43:01.796Z,54.40
2023-02-01T02:45:48.270Z,53.83
2023-02-01T02:48:16.084Z,49.58
2023-02-01T02:51:25.575Z,49.60
2023-02-01T02:54:31.472Z,45.75
2023-02-01T02:57:19.298Z,48.17
2023-02-01T03:00:08.720Z,50.28
2023-02-01T03:02:55.700Z,46.17
2023-02-01T03:05:24.014Z,49.10
2023-02-01T03:07:53.433Z,48.28
2023-02-01T03:10:40.013Z,49.17
2023-02-01T03:13:12.761Z,46.60
2023-02-01T03:15:44.265Z,45.70
2023-02-01T03:18:18.641Z,48.97
2023-02-01T03:20:48.812Z,51.35
2023-02-01T03:23:18.805Z,42.65
2023-02-01T03:25:49.289Z,41.70
2023-02-01T03:28:20.407Z,50.47
2023-02-01T03:30:48.503Z,53.22
2023-02-01T03:33:23.881Z,54.00
2023-02-01T03:35:58.398Z,48.55
2023-02-01T03:38:26.379Z,46.80
2023-02-01T03:41:15.120Z,43.95
2023-02-01T03:43:54.637Z,47.42
2023-02-01T03:46:34.846Z,43.47
2023-02-01T03:49:05.690Z,47.10
2023-02-01T03:51:34.810Z,42.20
2023-02-01T03:54:03.847Z,44.80
2023-02-01T03:56:32.517Z,44.85
2023-02-01T03:59:00.427Z,46.80
2023-02-01T04:01:34.039Z,44.67
2023-02-01T04:04:02.679Z,44.00
2023-02-01T04:06:31.126Z,45.00
2023-02-01T04:09:03.735Z,38.13
2023-02-01T04:11:31.509Z,44.67
2023-02-01T04:13:59.366Z,46.22
2023-02-01T04:16:27.205Z,46.80
2023-02-01T04:18:54.975Z,43.03
2023-02-01T04:21:22.872Z,49.47
2023-02-01T04:23:50.669Z,47.75
2023-02-01T04:26:20.030Z,48.50
2023-02-01T04:28:48.911Z,45.70
2023-02-01T04:31:17.779Z,47.05
2023-02-01T04:33:45.716Z,45.65
2023-02-01T04:36:13.476Z,45.78
2023-02-01T04:38:41.267Z,52.90
2023-02-01T04:41:10.442Z,54.25
2023-02-01T04:43:38.204Z,56.45
2023-02-01T04:46:06.136Z,58.33
2023-02-01T04:48:34.058Z,52.78
2023-02-01T04:51:01.886Z,49.90
2023-02-01T04:53:30.881Z,49.00
2023-02-01T04:55:58.854Z,62.97
2023-02-01T04:58:26.760Z,53.78
2023-02-01T05:00:54.549Z,60.20
2023-02-01T05:03:22.321Z,58.53
2023-02-01T05:05:57.178Z,79.97
2023-02-01T05:08:27.071Z,59.83
2023-02-01T05:10:57.102Z,63.97
2023-02-01T05:13:50.309Z,56.65
2023-02-01T05:16:20.995Z,49.75
2023-02-01T05:18:49.014Z,56.55
2023-02-01T05:21:16.798Z,53.90
2023-02-01T05:24:03.608Z,77.65
2023-02-01T05:26:31.604Z,77.40
2023-02-01T05:29:04.988Z,73.63
2023-02-01T05:31:33.103Z,57.03
2023-02-01T05:34:01.193Z,56.75
2023-02-01T05:36:29.020Z,61.67
2023-02-01T05:38:56.878Z,63.65
2023-02-01T05:41:24.703Z,65.97
2023-02-01T05:43:52.683Z,67.70
2023-02-01T05:46:20.415Z,77.00
2023-02-01T05:48:48.588Z,98.03
2023-02-01T05:51:16.600Z,67.97
2023-02-01T05:53:44.454Z,62.83
2023-02-01T05:56:13.574Z,66.05
2023-02-01T05:58:41.384Z,66.30
2023-02-01T06:01:09.229Z,87.57
2023-02-01T06:03:37.152Z,71.93
2023-02-01T06:06:05.222Z,54.20
2023-02-01T06:08:33.001Z,146.10
2023-02-01T06:11:01.718Z,186.20
2023-02-01T06:13:29.673Z,57.25
2023-02-01T06:15:58.325Z,58.95
2023-02-01T06:18:26.888Z,57.42
2023-02-01T06:20:58.768Z,73.80
2023-02-01T06:23:26.791Z,95.30
2023-02-01T06:26:00.438Z,109.85
2023-02-01T06:28:29.156Z,91.47
2023-02-01T06:30:59.087Z,62.10
2023-02-01T06:33:27.550Z,67.28
2023-02-01T06:35:59.764Z,69.05
2023-02-01T06:38:27.525Z,51.33
2023-02-01T06:40:59.419Z,72.60
2023-02-01T06:43:28.375Z,64.47
2023-02-01T06:46:01.356Z,70.72
2023-02-01T06:48:29.257Z,65.20
2023-02-01T06:50:57.267Z,60.92
2023-02-01T06:53:25.209Z,61.15
2023-02-01T06:55:54.208Z,61.83
2023-02-01T06:58:22.755Z,64.25
2023-02-01T07:00:51.454Z,62.47
2023-02-01T07:03:19.332Z,63.28
2023-02-01T07:05:47.323Z,74.00
2023-02-01T07:08:15.117Z,74.03
2023-02-01T07:10:43.321Z,71.03
2023-02-01T07:13:11.214Z,69.18
2023-02-01T07:15:52.427Z,77.03
2023-02-01T07:18:20.773Z,74.97
2023-02-01T07:20:52.538Z,68.38
2023-02-01T07:23:21.232Z,71.82
2023-02-01T07:25:49.303Z,73.25
2023-02-01T07:28:17.143Z,77.03
2023-02-01T07:30:45.085Z,77.72
2023-02-01T07:33:13.030Z,80.18
2023-02-01T07:35:40.825Z,71.55
2023-02-01T07:38:08.633Z,84.95
2023-02-01T07:40:36.395Z,84.60
2023-02-01T07:43:07.047Z,83.40
2023-02-01T07:45:36.914Z,76.93
2023-02-01T07:48:05.134Z,75.07
2023-02-01T07:50:33.277Z,87.65
2023-02-01T07:53:02.212Z,85.53
2023-02-01T07:55:30.274Z,82.18
2023-02-01T07:58:01.574Z,84.13
2023-02-01T08:00:47.815Z,87.82
2023-02-01T08:03:17.336Z,74.25
2023-02-01T08:05:45.330Z,79.40
2023-02-01T08:08:14.103Z,77.43
2023-02-01T08:10:42.189Z,77.47
2023-02-01T08:13:10.788Z,84.90
2023-02-01T08:15:38.807Z,82.35
2023-02-01T08:18:06.624Z,83.40
2023-02-01T08:20:37.135Z,87.50
2023-02-01T08:23:04.928Z,83.93
2023-02-01T08:25:32.967Z,90.47
2023-02-01T08:28:00.768Z,89.85
2023-02-01T08:30:28.736Z,87.63
2023-02-01T08:32:56.535Z,80.65
2023-02-01T08:35:37.862Z,96.85
2023-02-01T08:38:10.766Z,102.32
2023-02-01T08:40:38.619Z,85.10
2023-02-01T08:43:06.498Z,93.70
2023-02-01T08:45:34.757Z,92.25
2023-02-01T08:48:02.574Z,90.50
2023-02-01T08:50:30.541Z,80.72
2023-02-01T08:52:58.332Z,90.32
2023-02-01T08:55:27.575Z,88.07
2023-02-01T08:57:55.351Z,85.43
2023-02-01T09:00:23.519Z,87.45
2023-02-01T09:02:51.595Z,85.57
2023-02-01T09:05:23.296Z,86.13
2023-02-01T09:07:51.374Z,89.93
2023-02-01T09:10:33.477Z,86.63
2023-02-01T09:15:30.440Z,93.60
2023-02-01T09:17:58.276Z,87.35
2023-02-01T09:20:26.453Z,96.55
2023-02-01T09:22:54.540Z,109.20
2023-02-01T09:25:23.723Z,95.97
2023-02-01T09:27:51.610Z,98.60
2023-02-01T09:30:19.471Z,99.50
2023-02-01T09:32:47.396Z,102.22
2023-02-01T09:35:15.187Z,100.55
2023-02-01T09:37:43.197Z,96.90
2023-02-01T09:40:14.981Z,104.93
2023-02-01T09:42:58.975Z,97.75
2023-02-01T09:45:53.193Z,123.22
2023-02-01T09:48:26.654Z,97.38
2023-02-01T09:50:58.554Z,101.68
2023-02-01T09:53:32.185Z,94.68
2023-02-01T09:56:07.688Z,99.80
2023-02-01T09:58:35.609Z,106.80
2023-02-01T10:01:04.813Z,100.85
2023-02-01T10:03:34.901Z,96.45
2023-02-01T10:06:12.040Z,94.63
2023-02-01T10:09:03.765Z,98.05
2023-02-01T10:11:52.804Z,98.78
2023-02-01T10:14:37.116Z,98.65
2023-02-01T10:17:24.489Z,96.00
2023-02-01T10:20:11.073Z,98.00
2023-02-01T10:23:19.143Z,96.32
2023-02-01T10:25:44.448Z,91.65
2023-02-01T10:28:16.681Z,91.75
2023-02-01T10:30:49.048Z,92.22
2023-02-01T10:33:34.250Z,96.10
2023-02-01T10:36:18.185Z,92.25
2023-02-01T10:38:46.431Z,98.03
2023-02-01T10:41:16.332Z,91.93
2023-02-01T10:43:45.114Z,89.68
2023-02-01T10:46:12.955Z,91.22
2023-02-01T10:48:41.950Z,94.05
2023-02-01T10:51:16.732Z,88.57
2023-02-01T10:53:44.745Z,92.47
2023-02-01T10:56:13.234Z,86.53
2023-02-01T10:58:45.566Z,94.28
2023-02-01T11:01:21.371Z,91.87
2023-02-01T11:03:56.530Z,92.15
2023-02-01T11:06:31.805Z,90.35
2023-02-01T11:09:01.883Z,86.88
2023-02-01T11:11:30.383Z,89.03
2023-02-01T11:13:59.845Z,90.30
2023-02-01T11:16:50.336Z,109.78
2023-02-01T11:19:18.750Z,90.15
2023-02-01T11:21:47.062Z,93.57
2023-02-01T11:24:25.724Z,88.07
2023-02-01T11:26:56.460Z,89.13
2023-02-01T11:29:30.947Z,87.53
2023-02-01T11:32:00.283Z,101.00
2023-02-01T11:34:39.291Z,104.35
2023-02-01T11:37:15.391Z,84.10
2023-02-01T11:39:43.710Z,82.38
2023-02-01T11:42:16.514Z,87.15
2023-02-01T11:44:45.573Z,89.45
2023-02-01T11:47:28.927Z,84.82
2023-02-01T11:49:58.583Z,89.07
2023-02-01T11:52:45.300Z,89.07
2023-02-01T11:55:19.899Z,85.88
2023-02-01T11:57:50.719Z,90.35
2023-02-01T12:00:22.197Z,84.57
2023-02-01T12:02:53.260Z,94.60
2023-02-01T12:05:41.418Z,95.38
2023-02-01T12:08:09.309Z,87.70
2023-02-01T12:10:55.829Z,92.53
2023-02-01T12:13:29.704Z,89.70
2023-02-01T12:16:18.080Z,95.78
2023-02-01T12:18:52.139Z,87.95
2023-02-01T12:21:19.971Z,92.10
2023-02-01T12:24:06.036Z,85.22
2023-02-01T12:26:36.896Z,91.65
2023-02-01T12:29:31.275Z,84.65
2023-02-01T12:32:11.511Z,87.03
2023-02-01T12:34:58.130Z,87.25
2023-02-01T12:37:42.133Z,87.00
2023-02-01T12:40:16.035Z,90.97
2023-02-01T12:42:47.827Z,89.43
2023-02-01T12:45:27.196Z,94.70
2023-02-01T12:48:02.199Z,82.68
2023-02-01T12:50:45.897Z,85.13
2023-02-01T12:53:37.308Z,93.20
2023-02-01T12:56:08.409Z,85.10
2023-02-01T12:58:44.690Z,83.93
2023-02-01T13:01:34.609Z,83.63
2023-02-01T13:04:12.638Z,86.50
2023-02-01T13:06:45.603Z,92.15
2023-02-01T13:09:30.943Z,78.40
2023-02-01T13:12:08.552Z,82.00
2023-02-01T13:14:41.919Z,78.40
2023-02-01T13:19:43.602Z,83.72
2023-02-01T13:22:15.617Z,84.78
2023-02-01T13:24:49.438Z,85.15
2023-02-01T13:27:18.634Z,81.50
2023-02-01T13:30:01.958Z,84.90
2023-02-01T13:33:51.434Z,87.03
2023-02-01T13:35:23.928Z,79.03
2023-02-01T13:37:55.110Z,80.70
2023-02-01T13:40:33.623Z,77.20
2023-02-01T13:43:03.714Z,83.65
2023-02-01T13:45:33.510Z,80.40
2023-02-01T13:48:03.566Z,90.55
2023-02-01T13:50:38.235Z,88.40
2023-02-01T13:53:16.857Z,89.60
2023-02-01T13:55:48.459Z,83.72
2023-02-01T13:58:32.954Z,82.22
2023-02-01T14:01:19.799Z,95.45
2023-02-01T14:03:48.705Z,86.97
2023-02-01T14:06:18.820Z,89.22
2023-02-01T14:08:48.362Z,92.80
2023-02-01T14:11:36.880Z,89.30
2023-02-01T14:14:25.164Z,89.75
2023-02-01T14:16:55.997Z,85.32
2023-02-01T14:19:24.103Z,90.07
2023-02-01T14:22:01.747Z,92.78
2023-02-01T14:24:31.104Z,84.47
2023-02-01T14:27:00.672Z,87.20
2023-02-01T14:29:32.898Z,87.82
2023-02-01T14:32:03.512Z,87.97
2023-02-01T14:34:49.886Z,81.63
2023-02-01T14:37:23.965Z,83.05
2023-02-01T14:39:54.889Z,86.13
2023-02-01T14:42:45.860Z,81.00
2023-02-01T14:45:20.366Z,88.43
2023-02-01T14:47:49.489Z,84.88
2023-02-01T14:50:21.702Z,89.57
2023-02-01T14:52:49.548Z,83.28
2023-02-01T14:55:19.828Z,89.00
2023-02-01T14:57:48.746Z,87.38
2023-02-01T15:00:19.531Z,91.32
2023-02-01T15:02:47.855Z,88.85
2023-02-01T15:05:25.163Z,94.07
2023-02-01T15:07:53.426Z,87.97
2023-02-01T15:10:22.230Z,84.38
2023-02-01T15:12:51.543Z,86.55
2023-02-01T15:15:19.400Z,85.35
2023-02-01T15:17:54.450Z,86.65
2023-02-01T15:20:30.009Z,81.20
2023-02-01T15:23:00.663Z,90.80
2023-02-01T15:25:29.738Z,83.82
2023-02-01T15:27:58.086Z,86.40
2023-02-01T15:30:30.520Z,83.72
2023-02-01T15:33:09.236Z,86.13
2023-02-01T15:35:37.404Z,83.30
2023-02-01T15:38:23.675Z,82.53
2023-02-01T15:41:10.778Z,88.03
2023-02-01T15:43:57.056Z,87.85
2023-02-01T15:46:42.681Z,80.03
2023-02-01T15:49:26.826Z,83.78
2023-02-01T15:51:55.474Z,90.65
2023-02-01T15:54:32.297Z,91.07
2023-02-01T15:57:01.812Z,95.55
2023-02-01T15:59:37.735Z,100.88
2023-02-01T16:02:05.683Z,112.45
2023-02-01T16:04:34.232Z,110.35
2023-02-01T16:07:04.450Z,101.47
2023-02-01T16:09:38.792Z,106.65
2023-02-01T16:12:24.377Z,110.43
2023-02-01T16:14:52.753Z,110.90
2023-02-01T16:17:22.664Z,107.68
2023-02-01T16:19:50.476Z,96.65
2023-02-01T16:22:25.115Z,93.75
2023-02-01T16:24:59.740Z,104.93
2023-02-01T16:27:30.664Z,103.22
2023-02-01T16:29:59.804Z,90.40
2023-02-01T16:32:27.808Z,95.13
2023-02-01T16:34:55.774Z,98.25
2023-02-01T16:37:25.781Z,103.43
2023-02-01T16:39:53.724Z,100.93
2023-02-01T16:42:21.550Z,112.93
2023-02-01T16:44:49.452Z,149.75
2023-02-01T16:47:23.933Z,130.77
2023-02-01T16:49:52.097Z,141.65
2023-02-01T16:52:21.816Z,128.13
2023-02-01T16:54:50.199Z,184.07
2023-02-01T16:57:19.422Z,133.90
2023-02-01T16:59:47.650Z,136.85
2023-02-01T17:02:23.409Z,126.93
2023-02-01T17:04:51.410Z,131.43
2023-02-01T17:07:20.495Z,125.53
2023-02-01T17:09:49.010Z,129.10
2023-02-01T17:12:33.589Z,138.10
2023-02-01T17:15:01.969Z,128.15
2023-02-01T17:17:39.576Z,112.38
2023-02-01T17:20:42.586Z,122.70
2023-02-01T17:23:13.470Z,113.18
2023-02-01T17:25:53.672Z,80.30
2023-02-01T17:28:36.162Z,103.43
2023-02-01T17:31:19.886Z,102.75
2023-02-01T17:34:02.844Z,103.78
2023-02-01T17:36:40.416Z,112.07
2023-02-01T17:39:47.201Z,112.68
2023-02-01T17:42:28.999Z,108.45
2023-02-01T17:45:26.810Z,119.20
2023-02-01T17:48:06.692Z,104.60
2023-02-01T17:50:47.990Z,110.75
2023-02-01T17:53:28.972Z,106.78
2023-02-01T17:56:03.060Z,120.65
2023-02-01T17:58:39.843Z,99.70
2023-02-01T18:01:22.321Z,98.93
2023-02-01T18:03:56.155Z,104.50
2023-02-01T18:06:39.955Z,100.30
2023-02-01T18:09:10.960Z,102.28
2023-02-01T18:11:38.933Z,105.32
2023-02-01T18:14:06.820Z,137.25
2023-02-01T18:16:38.490Z,100.78
2023-02-01T18:19:06.442Z,101.47
2023-02-01T18:21:37.325Z,107.53
2023-02-01T18:24:06.193Z,111.57
2023-02-01T18:26:34.456Z,145.43
2023-02-01T18:29:06.778Z,132.25
2023-02-01T18:31:41.446Z,114.55
2023-02-01T18:34:16.905Z,108.07
2023-02-01T18:36:44.795Z,108.78
2023-02-01T18:39:12.689Z,139.07
2023-02-01T18:41:41.307Z,162.27
2023-02-01T18:44:19.329Z,134.93
2023-02-01T18:46:47.193Z,105.32
2023-02-01T18:49:18.120Z,125.50
2023-02-01T18:51:47.189Z,124.07
2023-02-01T18:54:15.717Z,126.85
2023-02-01T18:56:44.906Z,119.53
2023-02-01T18:59:13.039Z,130.27
2023-02-01T19:01:40.892Z,136.77
2023-02-01T19:04:17.478Z,140.40
2023-02-01T19:09:37.442Z,109.90
2023-02-01T19:12:05.358Z,119.43
2023-02-01T19:14:33.844Z,122.97
2023-02-01T19:17:19.349Z,108.50
2023-02-01T19:20:09.052Z,115.55
2023-02-01T19:22:41.173Z,111.53
2023-02-01T19:25:09.874Z,109.20
2023-02-01T19:27:37.941Z,181.00
2023-02-01T19:30:06.429Z,134.65
2023-02-01T19:32:34.381Z,117.88
2023-02-01T19:35:02.434Z,121.82
2023-02-01T19:37:30.408Z,114.47
2023-02-01T19:40:01.403Z,120.60
2023-02-01T19:42:30.315Z,117.28
2023-02-01T19:44:59.307Z,120.80
2023-02-01T19:47:27.112Z,124.13
2023-02-01T19:49:55.201Z,154.02
2023-02-01T19:52:23.042Z,152.32
2023-02-01T19:54:50.974Z,148.27
2023-02-01T19:57:20.412Z,156.50
2023-02-01T19:59:48.601Z,143.88
2023-02-01T20:02:47.246Z,129.77
2023-02-01T20:05:15.520Z,127.50
2023-02-01T20:07:43.326Z,116.35
2023-02-01T20:10:11.424Z,135.45
2023-02-01T20:12:40.257Z,160.20
2023-02-01T20:15:08.399Z,173.40
2023-02-01T20:17:36.771Z,135.95
2023-02-01T20:20:05.425Z,181.10
2023-02-01T20:22:33.721Z,135.23
2023-02-01T20:25:02.714Z,122.10
2023-02-01T20:27:31.514Z,128.30
2023-02-01T20:29:59.913Z,129.50
2023-02-01T20:32:28.005Z,121.13
2023-02-01T20:34:55.768Z,123.18
2023-02-01T20:37:23.783Z,124.32
2023-02-01T20:39:52.007Z,118.25
2023-02-01T20:42:19.878Z,130.50
2023-02-01T20:44:48.167Z,118.13
2023-02-01T20:47:18.155Z,135.93
2023-02-01T20:49:46.072Z,118.38
2023-02-01T20:52:14.366Z,126.03
2023-02-01T20:54:42.217Z,120.88
2023-02-01T20:57:10.203Z,122.65
2023-02-01T20:59:38.049Z,122.18
2023-02-01T21:02:05.864Z,122.57
2023-02-01T21:04:34.382Z,151.75
2023-02-01T21:07:03.237Z,131.82
2023-02-01T21:09:31.040Z,119.85
2023-02-01T21:11:59.414Z,123.70
2023-02-01T21:14:27.376Z,123.25
2023-02-01T21:16:55.281Z,120.72
2023-02-01T21:19:25.313Z,123.78
2023-02-01T21:21:53.516Z,110.47
2023-02-01T21:24:21.390Z,119.13
2023-02-01T21:26:49.283Z,110.38
2023-02-01T21:29:17.335Z,115.78
2023-02-01T21:31:45.173Z,111.85
2023-02-01T21:34:13.038Z,103.57
2023-02-01T21:36:40.794Z,106.15
2023-02-01T21:39:11.047Z,98.55
2023-02-01T21:41:58.117Z,106.85
2023-02-01T21:44:25.911Z,108.63
2023-02-01T21:46:55.643Z,106.65
2023-02-01T21:49:26.149Z,106.13
2023-02-01T21:51:53.918Z,119.45
2023-02-01T21:54:21.832Z,123.25
2023-02-01T21:56:49.634Z,107.43
2023-02-01T21:59:17.596Z,106.13
2023-02-01T22:01:45.428Z,154.82
2023-02-01T22:04:13.460Z,152.43
2023-02-01T22:06:42.761Z,111.50
2023-02-01T22:09:19.480Z,123.15
2023-02-01T22:11:48.922Z,124.78
2023-02-01T22:14:16.877Z,119.28
2023-02-01T22:16:45.226Z,106.72
2023-02-01T22:19:14.124Z,108.35
2023-02-01T22:21:42.692Z,111.28
2023-02-01T22:24:11.619Z,108.75
2023-02-01T22:26:39.713Z,115.93
2023-02-01T22:29:08.869Z,110.50
2023-02-01T22:31:36.861Z,125.15
2023-02-01T22:34:04.942Z,115.25
2023-02-01T22:36:32.987Z,120.78
2023-02-01T22:39:00.985Z,116.78
2023-02-01T22:41:28.799Z,112.50
2023-02-01T22:43:56.804Z,109.22
2023-02-01T22:46:28.324Z,114.30
2023-02-01T22:48:56.298Z,111.95
2023-02-01T22:51:28.325Z,111.35
2023-02-01T22:54:00.035Z,113.38
2023-02-01T22:56:30.264Z,112.80
2023-02-01T22:58:59.458Z,117.95
2023-02-01T23:01:28.995Z,110.50
2023-02-01T23:03:57.776Z,114.40
2023-02-01T23:06:26.056Z,115.68
2023-02-01T23:09:04.802Z,102.05
2023-02-01T23:11:32.548Z,103.85
2023-02-01T23:14:00.605Z,109.93
2023-02-01T23:16:28.722Z,97.65
2023-02-01T23:18:56.853Z,105.95
2023-02-01T23:21:24.624Z,104.20
2023-02-01T23:23:54.457Z,103.00
2023-02-01T23:26:23.179Z,100.43
2023-02-01T23:28:54.159Z,98.43
2023-02-01T23:31:23.040Z,100.32
2023-02-01T23:33:54.801Z,90.32
2023-02-01T23:36:23.472Z,93.15
2023-02-01T23:38:51.765Z,94.03
2023-02-01T23:41:20.233Z,96.47
2023-02-01T23:44:00.776Z,93.05
2023-02-01T23:46:55.002Z,93.38
2023-02-01T23:49:22.742Z,94.57
2023-02-01T23:51:53.293Z,88.22
2023-02-01T23:54:22.711Z,98.18
2023-02-01T23:56:50.919Z,101.20
2023-02-01T23:59:19.875Z,89.32
